Time;durP1;ratioP1;P1;durP2;ratioP2;P2;SDS_P1;SDS_P2;PMS_P1;PMS_P2;Temp;Humidity;BMP_temperature;BMP_pressure;BME280_temperature;BME280_humidity;BME280_pressure;Samples;Min_cycle;Max_cycle;Signal;HPM_P1;HPM_P2
2023/10/31 00:00:42;;;;;;;17.50;5.20;;;;;;;8.63;100.00;99789.19;5012345;28;20528;-79
2023/10/31 00:03:07;;;;;;;25.58;6.20;;;;;;;8.65;100.00;99781.91;5012606;28;20029;-78
2023/10/31 00:05:32;;;;;;;21.38;6.90;;;;;;;8.67;100.00;99796.84;5012110;28;20037;-78
2023/10/31 00:07:58;;;;;;;22.67;7.47;;;;;;;8.68;100.00;99802.00;5012284;28;20143;-76
2023/10/31 00:10:23;;;;;;;17.33;6.85;;;;;;;8.70;100.00;99794.72;5011960;28;20029;-76
2023/10/31 00:12:48;;;;;;;24.35;6.68;;;;;;;8.73;100.00;99790.94;5012546;28;20029;-76
2023/10/31 00:15:14;;;;;;;13.88;6.88;;;;;;;8.74;100.00;99793.44;5012129;28;20160;-77
2023/10/31 00:17:39;;;;;;;20.23;7.32;;;;;;;8.74;100.00;99787.31;5012118;28;20458;-77
2023/10/31 00:20:05;;;;;;;23.10;7.90;;;;;;;8.76;100.00;99794.13;5012303;28;20030;-76
2023/10/31 00:22:31;;;;;;;17.85;7.60;;;;;;;8.73;100.00;99794.44;5011586;28;20041;-76
2023/10/31 00:24:56;;;;;;;18.85;7.65;;;;;;;8.74;100.00;99788.13;5012282;28;20034;-77
2023/10/31 00:27:21;;;;;;;19.92;8.00;;;;;;;8.72;100.00;99791.91;5011784;28;20049;-77
2023/10/31 00:29:47;;;;;;;16.55;7.40;;;;;;;8.72;100.00;99792.75;5012218;28;20030;-77
2023/10/31 00:32:12;;;;;;;19.73;7.30;;;;;;;8.72;100.00;99794.56;5012041;28;20482;-77
2023/10/31 00:34:37;;;;;;;17.52;8.35;;;;;;;8.72;100.00;99787.47;5011481;28;20715;-76
2023/10/31 00:37:03;;;;;;;15.70;8.48;;;;;;;8.72;100.00;99798.06;5011879;28;20036;-77
2023/10/31 00:39:28;;;;;;;19.00;8.85;;;;;;;8.72;100.00;99795.41;5010079;28;20030;-76
2023/10/31 00:41:54;;;;;;;17.05;8.35;;;;;;;8.72;100.00;99799.88;5012250;28;20404;-76
2023/10/31 00:44:19;;;;;;;19.10;8.10;;;;;;;8.74;100.00;99805.88;5010907;28;20086;-76
2023/10/31 00:46:44;;;;;;;16.67;7.70;;;;;;;8.73;100.00;99807.69;5012009;28;20060;-76
2023/10/31 00:49:10;;;;;;;17.98;7.47;;;;;;;8.73;100.00;99801.53;5011819;28;20110;-76
2023/10/31 00:51:35;;;;;;;17.30;6.22;;;;;;;8.73;100.00;99804.19;5011193;28;20056;-77
2023/10/31 00:54:00;;;;;;;17.42;6.03;;;;;;;8.70;100.00;99802.66;5011424;28;20440;-77
2023/10/31 00:56:26;;;;;;;12.40;5.18;;;;;;;8.72;100.00;99810.47;5011447;28;20081;-77
2023/10/31 00:58:51;;;;;;;18.50;5.07;;;;;;;8.70;100.00;99807.97;5011537;28;20480;-77
2023/10/31 01:01:19;;;;;;;15.60;4.60;;;;;;;8.72;100.00;99818.44;5011879;28;20362;-78
2023/10/31 01:03:44;;;;;;;11.18;4.10;;;;;;;8.69;100.00;99824.91;5011225;28;20093;-77
2023/10/31 01:06:10;;;;;;;12.85;3.75;;;;;;;8.69;100.00;99816.09;5011658;28;20030;-77
2023/10/31 01:08:35;;;;;;;11.18;2.63;;;;;;;8.67;100.00;99831.31;5010904;28;20038;-77
2023/10/31 01:11:00;;;;;;;7.22;2.40;;;;;;;8.66;100.00;99827.84;5011540;28;20078;-76
2023/10/31 01:13:26;;;;;;;10.60;2.63;;;;;;;8.66;100.00;99827.84;5010662;28;20038;-77
2023/10/31 01:15:51;;;;;;;9.65;1.65;;;;;;;8.63;100.00;99828.16;5011307;28;20036;-78
2023/10/31 01:18:17;;;;;;;6.22;1.42;;;;;;;8.58;100.00;99831.25;5011406;28;20069;-78
2023/10/31 01:20:42;;;;;;;5.90;1.65;;;;;;;8.55;100.00;99839.50;5011110;28;20029;-78
2023/10/31 01:23:07;;;;;;;4.20;1.00;;;;;;;8.55;100.00;99838.66;5011371;28;20563;-78
2023/10/31 01:25:33;;;;;;;11.45;1.50;;;;;;;8.54;100.00;99845.78;5011279;28;20061;-78
2023/10/31 01:27:58;;;;;;;9.77;1.38;;;;;;;8.49;100.00;99842.75;5011493;28;20076;-78
2023/10/31 01:30:23;;;;;;;5.20;1.13;;;;;;;8.47;100.00;99855.31;5011372;28;20531;-78
2023/10/31 01:32:49;;;;;;;5.85;1.10;;;;;;;8.45;100.00;99852.81;5010962;28;20501;-78
2023/10/31 01:35:14;;;;;;;3.05;1.20;;;;;;;8.44;100.00;99856.44;5010079;28;20061;-78
2023/10/31 01:37:40;;;;;;;5.47;1.30;;;;;;;8.42;100.00;99861.03;5010385;28;20064;-78
2023/10/31 01:40:07;;;;;;;5.65;1.02;;;;;;;8.40;100.00;99856.88;5011278;28;20073;-77
2023/10/31 01:42:32;;;;;;;6.28;1.20;;;;;;;8.39;100.00;99863.13;5010765;28;20112;-78
2023/10/31 01:44:58;;;;;;;5.50;0.80;;;;;;;8.38;100.00;99869.44;5011120;28;20478;-78
2023/10/31 01:47:24;;;;;;;6.10;1.23;;;;;;;8.35;100.00;99873.22;5010052;28;20438;-78
2023/10/31 01:49:50;;;;;;;3.00;0.80;;;;;;;8.34;100.00;99874.19;5010653;28;20549;-77
2023/10/31 01:52:16;;;;;;;3.13;0.82;;;;;;;8.32;100.00;99880.66;5009665;28;20025;-77
2023/10/31 01:54:43;;;;;;;4.00;0.90;;;;;;;8.33;100.00;99882.28;5010547;28;20445;-77
2023/10/31 01:57:09;;;;;;;9.40;1.00;;;;;;;8.32;100.00;99884.13;5011225;28;20476;-77
2023/10/31 01:59:34;;;;;;;4.82;1.00;;;;;;;8.32;100.00;99889.41;5010721;28;20038;-78
2023/10/31 02:02:01;;;;;;;3.38;0.88;;;;;;;8.35;100.00;99885.66;5011203;28;20061;-78
2023/10/31 02:04:26;;;;;;;7.82;1.17;;;;;;;8.36;100.00;99889.94;5010723;28;20104;-77
2023/10/31 02:06:51;;;;;;;6.75;1.27;;;;;;;8.38;100.00;99893.31;5009052;28;20030;-78
2023/10/31 02:09:17;;;;;;;7.28;1.17;;;;;;;8.39;100.00;99894.94;5010754;28;20106;-78
2023/10/31 02:11:42;;;;;;;5.20;0.90;;;;;;;8.40;100.00;99894.81;5010677;28;20033;-77
2023/10/31 02:14:08;;;;;;;6.22;1.55;;;;;;;8.41;100.00;99898.31;5010607;28;20454;-78
2023/10/31 02:16:33;;;;;;;6.32;1.17;;;;;;;8.46;100.00;99896.06;5010599;28;20026;-78
2023/10/31 02:18:58;;;;;;;7.13;1.17;;;;;;;8.48;100.00;99894.13;5010703;28;20080;-77
2023/10/31 02:21:25;;;;;;;3.90;1.00;;;;;;;8.54;100.00;99896.16;5010690;28;20026;-78
2023/10/31 02:23:58;;;;;;;10.60;1.60;;;;;;;8.60;100.00;99902.69;5010790;28;20041;-79
2023/10/31 02:26:24;;;;;;;19.42;2.15;;;;;;;8.60;100.00;99897.41;5014354;28;20030;-78
2023/10/31 02:28:49;;;;;;;7.05;1.10;;;;;;;8.56;100.00;99898.66;5013924;28;20034;-79
2023/10/31 02:31:14;;;;;;;9.73;1.40;;;;;;;8.56;100.00;99906.63;5014651;28;20504;-78
2023/10/31 02:33:40;;;;;;;8.57;1.13;;;;;;;8.54;100.00;99901.47;5013783;28;20034;-79
2023/10/31 02:36:05;;;;;;;10.73;1.60;;;;;;;8.51;100.00;99903.56;5013975;28;20522;-78
2023/10/31 02:38:31;;;;;;;7.38;1.25;;;;;;;8.48;100.00;99907.38;5014298;28;20034;-78
2023/10/31 02:40:56;;;;;;;8.13;1.10;;;;;;;8.43;100.00;99913.09;5013881;28;20111;-77
2023/10/31 02:43:21;;;;;;;5.63;1.25;;;;;;;8.43;100.00;99917.53;5012689;28;20117;-78
2023/10/31 02:45:47;;;;;;;4.72;0.80;;;;;;;8.40;100.00;99916.00;5013942;28;20124;-78
2023/10/31 02:48:12;;;;;;;13.40;1.60;;;;;;;8.38;100.00;99917.16;5013996;28;20041;-78
2023/10/31 02:50:37;;;;;;;7.22;0.98;;;;;;;8.37;100.00;99916.31;5013415;28;20042;-78
2023/10/31 02:53:03;;;;;;;6.95;1.17;;;;;;;8.36;100.00;99912.00;5013728;28;20034;-78
2023/10/31 02:55:28;;;;;;;9.25;1.05;;;;;;;8.33;100.00;99917.59;5012214;28;20116;-78
2023/10/31 02:57:53;;;;;;;7.32;0.90;;;;;;;8.34;100.00;99918.44;5013264;28;20041;-78
2023/10/31 03:00:19;;;;;;;5.63;1.15;;;;;;;8.32;100.00;99920.41;5013592;28;20034;-78
2023/10/31 03:02:44;;;;;;;12.45;1.27;;;;;;;8.30;100.00;99924.03;5011902;28;20068;-78
2023/10/31 03:05:09;;;;;;;8.48;1.40;;;;;;;8.28;100.00;99922.50;5012129;28;20038;-77
2023/10/31 03:07:35;;;;;;;9.27;0.90;;;;;;;8.30;100.00;99920.56;5013395;28;20038;-77
2023/10/31 03:10:00;;;;;;;7.43;1.05;;;;;;;8.29;100.00;99930.28;5013071;28;20037;-76
2023/10/31 03:12:26;;;;;;;9.45;1.13;;;;;;;8.30;100.00;99929.31;5013454;28;20179;-78
2023/10/31 03:14:51;;;;;;;11.35;1.13;;;;;;;8.25;100.00;99931.56;5012792;28;20385;-77
2023/10/31 03:17:16;;;;;;;3.33;0.73;;;;;;;8.26;100.00;99937.72;5013282;28;20030;-77
2023/10/31 03:19:42;;;;;;;5.45;0.90;;;;;;;8.25;100.00;99938.69;5012671;28;20466;-77
2023/10/31 03:22:07;;;;;;;5.22;0.85;;;;;;;8.24;100.00;99931.72;5013063;28;20091;-77
2023/10/31 03:24:33;;;;;;;8.38;1.05;;;;;;;8.23;100.00;99936.19;5013158;28;20037;-77
2023/10/31 03:26:58;;;;;;;7.22;1.00;;;;;;;8.22;100.00;99936.34;5012927;28;20034;-77
2023/10/31 03:29:24;;;;;;;7.35;0.98;;;;;;;8.20;100.00;99939.13;5013203;28;20030;-77
2023/10/31 03:31:49;;;;;;;4.85;0.98;;;;;;;8.21;100.00;99939.94;5012720;28;20029;-77
2023/10/31 03:34:14;;;;;;;6.63;1.13;;;;;;;8.20;100.00;99940.97;5012885;28;20393;-77
2023/10/31 03:36:39;;;;;;;7.00;1.45;;;;;;;8.18;100.00;99938.44;5012184;28;20029;-78
2023/10/31 03:39:05;;;;;;;6.63;1.20;;;;;;;8.15;100.00;99940.53;5012454;28;20038;-77
2023/10/31 03:41:30;;;;;;;8.00;1.48;;;;;;;8.12;100.00;99945.16;5012839;28;20034;-78
2023/10/31 03:43:56;;;;;;;10.02;1.60;;;;;;;8.12;100.00;99949.59;5012544;28;20361;-77
2023/10/31 03:46:21;;;;;;;5.47;1.35;;;;;;;8.10;100.00;99952.41;5012093;28;20057;-77
2023/10/31 03:48:46;;;;;;;9.35;1.75;;;;;;;8.11;100.00;99942.66;5012420;28;20037;-77
2023/10/31 03:51:12;;;;;;;9.57;1.35;;;;;;;8.12;100.00;99939.00;5012879;28;20053;-77
2023/10/31 03:53:37;;;;;;;6.70;1.27;;;;;;;8.11;100.00;99947.97;5012963;28;20096;-77
2023/10/31 03:56:03;;;;;;;8.98;1.70;;;;;;;8.09;100.00;99947.25;5012255;28;20100;-77
2023/10/31 03:58:29;;;;;;;5.47;1.42;;;;;;;8.08;100.00;99946.44;5012535;28;20096;-77
2023/10/31 04:00:54;;;;;;;8.27;1.27;;;;;;;8.08;100.00;99948.25;5012298;28;20041;-77
2023/10/31 04:03:19;;;;;;;6.18;1.40;;;;;;;8.08;100.00;99953.53;5012695;28;20560;-77
2023/10/31 04:05:45;;;;;;;6.53;1.42;;;;;;;8.07;100.00;99955.34;5012414;28;20355;-77
2023/10/31 04:08:10;;;;;;;6.43;1.33;;;;;;;8.09;100.00;99965.78;5012123;28;20042;-77
2023/10/31 04:10:36;;;;;;;7.28;1.30;;;;;;;8.10;100.00;99975.41;5012567;28;20075;-78
2023/10/31 04:13:01;;;;;;;6.00;1.20;;;;;;;8.08;100.00;99972.91;5012057;28;20414;-78
2023/10/31 04:15:26;;;;;;;4.18;1.20;;;;;;;8.08;100.00;99969.44;5012240;28;20106;-78
2023/10/31 04:17:52;;;;;;;5.78;1.20;;;;;;;8.09;100.00;99977.25;5011883;28;20113;-78
2023/10/31 04:20:17;;;;;;;5.28;1.55;;;;;;;8.09;100.00;99973.75;5011212;28;20041;-78
2023/10/31 04:22:42;;;;;;;4.35;1.10;;;;;;;8.07;100.00;99979.19;5012005;28;20481;-78
2023/10/31 04:25:08;;;;;;;5.80;1.08;;;;;;;8.05;100.00;99983.81;5010631;28;20144;-78
2023/10/31 04:27:34;;;;;;;12.20;1.50;;;;;;;8.04;100.00;99989.25;5012471;28;20033;-78
2023/10/31 04:29:59;;;;;;;6.18;1.45;;;;;;;8.05;100.00;99996.22;5011890;28;20042;-78
2023/10/31 04:32:24;;;;;;;7.78;1.23;;;;;;;8.04;100.00;99998.03;5012194;28;20030;-77
2023/10/31 04:34:50;;;;;;;4.72;1.33;;;;;;;8.04;100.00;99991.91;5010741;28;20603;-78
2023/10/31 04:37:15;;;;;;;13.43;1.20;;;;;;;8.02;100.00;99992.03;5011525;28;20200;-78
2023/10/31 04:39:40;;;;;;;10.00;1.50;;;;;;;8.00;100.00;99995.81;5011997;28;20052;-78
2023/10/31 04:42:06;;;;;;;10.60;1.17;;;;;;;7.98;100.00;100005.72;5011626;28;20029;-79
2023/10/31 04:44:31;;;;;;;7.72;1.23;;;;;;;7.94;100.00;100000.72;5011937;28;20042;-79
2023/10/31 04:46:57;;;;;;;3.83;1.15;;;;;;;7.93;100.00;100006.97;5011315;28;20125;-79
2023/10/31 04:49:22;;;;;;;8.90;1.05;;;;;;;7.94;100.00;100015.75;5011250;28;20079;-79
2023/10/31 04:51:48;;;;;;;4.95;1.30;;;;;;;7.94;100.00;100015.75;5011565;28;20041;-79
2023/10/31 04:54:14;;;;;;;9.88;1.25;;;;;;;7.94;100.00;100016.59;5009932;28;20033;-79
2023/10/31 04:56:39;;;;;;;4.95;1.48;;;;;;;7.92;100.00;100017.72;5011435;28;20057;-79
2023/10/31 04:59:05;;;;;;;8.35;1.52;;;;;;;7.91;100.00;100030.13;5011316;28;20034;-79
2023/10/31 05:01:30;;;;;;;4.40;1.23;;;;;;;7.91;100.00;100026.63;5010228;28;20030;-78
2023/10/31 05:03:56;;;;;;;9.23;1.67;;;;;;;7.91;100.00;100027.47;5010898;28;20042;-79
2023/10/31 05:06:22;;;;;;;6.65;1.70;;;;;;;7.93;100.00;100030.81;5011190;28;20393;-78
2023/10/31 05:08:48;;;;;;;9.30;1.80;;;;;;;7.93;100.00;100027.34;5011738;28;20053;-79
2023/10/31 05:11:16;;;;;;;8.80;2.30;;;;;;;7.95;100.00;100031.50;5011169;28;20022;-78
2023/10/31 05:13:42;;;;;;;7.35;3.15;;;;;;;7.98;100.00;100032.22;5011894;28;20029;-79
2023/10/31 05:16:07;;;;;;;6.95;3.90;;;;;;;8.00;100.00;100039.03;5011120;28;20081;-79
2023/10/31 05:18:33;;;;;;;10.75;3.63;;;;;;;7.99;100.00;100037.38;5011464;28;20036;-79
2023/10/31 05:20:58;;;;;;;15.82;4.05;;;;;;;8.00;100.00;100044.34;5010747;28;20030;-79
2023/10/31 05:23:23;;;;;;;8.90;4.55;;;;;;;8.00;100.00;100044.34;5011439;28;20470;-79
2023/10/31 05:25:49;;;;;;;9.25;5.13;;;;;;;8.01;100.00;100046.00;5011334;28;20531;-79
2023/10/31 05:28:14;;;;;;;10.07;4.90;;;;;;;8.02;100.00;100050.31;5011286;28;20072;-81
2023/10/31 05:30:39;;;;;;;9.90;4.80;;;;;;;8.04;100.00;100047.53;5010305;28;20135;-79
2023/10/31 05:33:05;;;;;;;16.52;5.70;;;;;;;8.05;100.00;100050.03;5011072;28;20474;-79
2023/10/31 05:35:30;;;;;;;13.88;5.72;;;;;;;8.05;100.00;100051.88;5011396;28;20030;-79
2023/10/31 05:37:56;;;;;;;11.55;5.43;;;;;;;8.03;100.00;100049.34;5010519;28;20466;-78
2023/10/31 05:40:24;;;;;;;21.90;6.25;;;;;;;8.01;100.00;100051.28;5011207;28;20224;-79
2023/10/31 05:42:50;;;;;;;11.80;5.78;;;;;;;8.02;100.00;100057.44;5010019;28;20110;-77
2023/10/31 05:45:15;;;;;;;14.80;5.78;;;;;;;8.00;100.00;100062.03;5011026;28;20045;-78
2023/10/31 05:47:41;;;;;;;13.75;5.97;;;;;;;7.98;100.00;100058.69;5009890;28;20037;-77
2023/10/31 05:50:07;;;;;;;10.77;5.93;;;;;;;7.98;100.00;100061.34;5009497;28;20030;-78
2023/10/31 05:52:32;;;;;;;17.52;5.13;;;;;;;7.96;100.00;100064.13;5010287;28;20037;-78
2023/10/31 05:54:58;;;;;;;16.67;6.18;;;;;;;7.98;100.00;100066.66;4993334;28;20037;-79
2023/10/31 05:57:23;;;;;;;19.05;5.50;;;;;;;7.95;100.00;100067.75;5010382;28;20081;-79
2023/10/31 05:59:49;;;;;;;13.88;5.05;;;;;;;7.92;100.00;100071.50;5013166;28;20041;-79
2023/10/31 06:02:14;;;;;;;12.13;5.25;;;;;;;7.89;100.00;100070.97;5014587;28;20396;-79
2023/10/31 06:04:40;;;;;;;13.32;4.70;;;;;;;7.84;100.00;100070.56;5013674;28;20501;-78
2023/10/31 06:07:06;;;;;;;8.85;4.30;;;;;;;7.81;100.00;100074.31;5014667;28;20461;-79
2023/10/31 06:09:33;;;;;;;12.32;4.30;;;;;;;7.75;100.00;100073.06;5014787;28;20477;-78
2023/10/31 06:11:59;;;;;;;11.70;4.07;;;;;;;7.69;100.00;100084.22;5014572;28;20048;-79
2023/10/31 06:14:25;;;;;;;10.80;4.03;;;;;;;7.64;100.00;100080.31;5013977;28;20394;-78
2023/10/31 06:16:51;;;;;;;5.68;3.72;;;;;;;7.58;100.00;100081.69;5014296;28;20042;-78
2023/10/31 06:19:16;;;;;;;7.78;3.00;;;;;;;7.50;100.00;100086.84;5013854;28;20186;-78
2023/10/31 06:21:41;;;;;;;4.95;2.80;;;;;;;7.39;100.00;100090.47;5013198;28;20054;-78
2023/10/31 06:24:07;;;;;;;6.00;3.00;;;;;;;7.31;100.00;100088.47;5014191;28;20045;-78
2023/10/31 06:26:33;;;;;;;5.43;2.95;;;;;;;7.26;100.00;100088.06;5014324;28;20408;-77
2023/10/31 06:28:58;;;;;;;13.73;3.50;;;;;;;7.25;100.00;100099.59;5014402;28;20126;-78
2023/10/31 06:31:24;;;;;;;11.57;3.70;;;;;;;7.28;100.00;100101.97;5012541;28;20026;-78
2023/10/31 06:33:49;;;;;;;8.45;3.63;;;;;;;7.37;100.00;100097.69;5013992;28;20029;-77
2023/10/31 06:36:15;;;;;;;8.70;4.07;;;;;;;7.45;100.00;100104.94;5013724;28;20374;-76
2023/10/31 06:38:40;;;;;;;13.43;5.15;;;;;;;7.51;100.00;100101.75;5014152;28;20389;-76
2023/10/31 06:41:06;;;;;;;13.93;5.45;;;;;;;7.57;100.00;100112.63;5014092;28;20033;-77
2023/10/31 06:43:31;;;;;;;11.80;5.75;;;;;;;7.65;100.00;100114.59;5013963;28;20112;-76
2023/10/31 06:46:00;;;;;;;13.68;5.95;;;;;;;7.71;100.00;100115.84;5014435;28;20081;-77
2023/10/31 06:48:25;;;;;;;10.52;6.40;;;;;;;7.79;100.00;100110.69;5007913;28;20026;-77
2023/10/31 06:50:50;;;;;;;11.40;5.68;;;;;;;7.84;100.00;100107.66;4991501;28;20056;-79
2023/10/31 06:53:16;;;;;;;14.40;5.63;;;;;;;7.91;100.00;100116.69;4991150;28;20041;-77
2023/10/31 06:55:41;;;;;;;9.70;5.18;;;;;;;7.97;100.00;100121.41;4989739;28;20058;-78
2023/10/31 06:58:06;;;;;;;10.40;5.13;;;;;;;8.02;100.00;100124.50;4991702;28;20378;-78
2023/10/31 07:00:32;;;;;;;13.15;4.40;;;;;;;8.08;100.00;100126.59;4997611;28;20580;-80
2023/10/31 07:02:58;;;;;;;16.33;4.65;;;;;;;8.09;100.00;100125.63;5022824;28;20132;-78
2023/10/31 07:05:24;;;;;;;9.02;4.60;;;;;;;8.10;100.00;100135.22;5032345;28;20033;-78
2023/10/31 07:07:50;;;;;;;11.77;4.50;;;;;;;8.10;100.00;100135.22;5033497;28;20516;-77
2023/10/31 07:10:15;;;;;;;14.15;4.07;;;;;;;8.09;100.00;100138.88;5031868;28;20116;-78
2023/10/31 07:12:40;;;;;;;12.68;4.85;;;;;;;8.13;100.00;100142.06;5033429;28;20036;-78
2023/10/31 07:15:06;;;;;;;10.90;4.15;;;;;;;8.13;100.00;100142.06;5033233;28;20034;-79
2023/10/31 07:17:32;;;;;;;7.68;3.80;;;;;;;8.13;100.00;100144.72;5021457;28;20045;-77
2023/10/31 07:19:58;;;;;;;7.18;3.88;;;;;;;8.10;100.00;100148.47;5012755;28;20057;-76
2023/10/31 07:22:24;;;;;;;12.15;4.10;;;;;;;8.06;100.00;100155.06;5007293;28;20058;-77
2023/10/31 07:24:50;;;;;;;16.63;4.63;;;;;;;8.01;100.00;100170.50;5010422;28;20514;-78
2023/10/31 07:27:16;;;;;;;18.42;6.22;;;;;;;7.97;100.00;100168.28;5009708;28;20110;-77
2023/10/31 07:29:41;;;;;;;14.93;6.35;;;;;;;7.94;100.00;100175.53;5010210;28;20552;-78
2023/10/31 07:32:07;;;;;;;13.60;5.93;;;;;;;7.97;100.00;100179.72;5010412;28;20057;-78
2023/10/31 07:34:33;;;;;;;13.25;6.25;;;;;;;7.94;100.00;100180.84;5009187;28;20183;-77
2023/10/31 07:36:58;;;;;;;18.70;6.40;;;;;;;7.90;100.00;100178.59;5010676;28;20038;-78
2023/10/31 07:39:24;;;;;;;22.55;7.20;;;;;;;7.89;100.00;100187.53;5008673;28;20175;-78
2023/10/31 07:41:49;;;;;;;24.10;7.15;;;;;;;7.88;100.00;100188.47;5010271;28;20116;-78
2023/10/31 07:44:14;;;;;;;24.30;7.53;;;;;;;7.85;100.00;100183.47;5010059;28;20045;-77
2023/10/31 07:46:39;;;;;;;24.50;7.10;;;;;;;7.89;100.00;100182.22;5009468;28;20034;-78
2023/10/31 07:49:05;;;;;;;16.65;6.85;;;;;;;7.93;100.00;100178.34;5008038;28;20038;-77
2023/10/31 07:51:31;;;;;;;15.88;6.57;;;;;;;8.01;100.00;100177.63;5009346;28;20030;-77
2023/10/31 07:53:58;;;;;;;16.13;6.82;;;;;;;8.05;100.00;100185.16;5009588;28;20100;-78
2023/10/31 07:56:25;;;;;;;22.92;8.02;;;;;;;8.11;100.00;100187.25;5008813;28;20057;-77
2023/10/31 07:58:51;;;;;;;20.23;7.57;;;;;;;8.20;100.00;100179.47;5009752;28;20048;-77
2023/10/31 08:01:19;;;;;;;18.65;7.60;;;;;;;8.36;100.00;100178.88;5009535;28;20034;-77
2023/10/31 08:03:47;;;;;;;22.38;8.18;;;;;;;8.51;100.00;100187.25;5008213;28;20041;-77
2023/10/31 08:06:12;;;;;;;21.48;7.75;;;;;;;8.63;100.00;100186.16;5009457;28;20141;-76
2023/10/31 08:08:37;;;;;;;19.95;7.32;;;;;;;8.73;100.00;100183.47;5009067;28;20129;-77
2023/10/31 08:11:03;;;;;;;15.35;7.53;;;;;;;8.81;100.00;100184.41;5009594;28;20049;-76
2023/10/31 08:13:29;;;;;;;16.38;7.45;;;;;;;8.91;100.00;100192.38;5009080;28;20539;-76
2023/10/31 08:15:55;;;;;;;18.98;7.43;;;;;;;9.02;100.00;100195.81;5009179;28;20481;-77
2023/10/31 08:18:23;;;;;;;20.17;8.50;;;;;;;9.14;100.00;100197.31;5009588;28;20121;-77
2023/10/31 08:20:50;;;;;;;27.00;9.73;;;;;;;9.35;100.00;100197.09;5006295;28;20064;-77
2023/10/31 08:23:16;;;;;;;28.67;8.63;;;;;;;9.54;100.00;100196.16;5015137;28;20147;-77
2023/10/31 08:25:41;;;;;;;22.73;8.00;;;;;;;9.60;100.00;100194.72;5029795;28;20201;-78
2023/10/31 08:28:07;;;;;;;20.33;8.10;;;;;;;9.67;100.00;100199.31;5031574;28;20530;-77
2023/10/31 08:30:33;;;;;;;19.70;6.88;;;;;;;9.60;100.00;100211.50;5031232;28;20469;-78
2023/10/31 08:32:59;;;;;;;24.10;7.95;;;;;;;9.49;100.00;100207.22;5030325;28;20029;-78
2023/10/31 08:35:24;;;;;;;25.55;7.32;;;;;;;9.43;100.00;100212.28;5030949;28;20025;-80
2023/10/31 08:37:50;;;;;;;18.92;6.88;;;;;;;9.34;100.00;100216.66;5031898;28;20036;-78
2023/10/31 08:40:15;;;;;;;19.63;6.95;;;;;;;9.29;100.00;100217.09;5031498;28;20453;-79
2023/10/31 08:42:41;;;;;;;17.25;6.43;;;;;;;9.26;100.00;100219.22;5031138;28;20037;-78
2023/10/31 08:45:07;;;;;;;20.40;6.75;;;;;;;9.27;100.00;100212.91;5031422;28;20500;-78
2023/10/31 08:47:33;;;;;;;26.17;7.70;;;;;;;9.30;100.00;100223.22;5030901;28;20080;-79
2023/10/31 08:49:58;;;;;;;22.08;8.02;;;;;;;9.32;100.00;100219.44;5031076;28;20029;-78
2023/10/31 08:52:23;;;;;;;29.35;8.60;;;;;;;9.34;100.00;100224.59;5031370;28;20083;-78
2023/10/31 08:54:49;;;;;;;37.65;9.68;;;;;;;9.44;100.00;100224.59;5030895;28;20041;-79
2023/10/31 08:57:14;;;;;;;26.38;8.38;;;;;;;9.62;100.00;100232.59;5030939;28;20057;-79
2023/10/31 08:59:40;;;;;;;20.08;9.82;;;;;;;9.75;100.00;100232.25;5030742;28;20067;-78
2023/10/31 09:02:06;;;;;;;19.90;8.70;;;;;;;9.78;100.00;100230.13;5029639;28;20108;-78
2023/10/31 09:04:31;;;;;;;28.75;10.35;;;;;;;9.78;100.00;100231.94;5030938;28;20199;-78
2023/10/31 09:06:56;;;;;;;25.23;9.50;;;;;;;9.73;100.00;100237.69;5031217;28;20041;-78
2023/10/31 09:09:22;;;;;;;37.25;10.35;;;;;;;9.81;100.00;100239.63;5030953;28;20048;-79
2023/10/31 09:11:47;;;;;;;30.63;10.10;;;;;;;9.96;100.00;100246.09;5030501;28;20411;-78
2023/10/31 09:14:12;;;;;;;23.55;9.73;;;;;;;10.10;100.00;100252.72;5031062;28;20091;-78
2023/10/31 09:16:38;;;;;;;29.20;10.07;;;;;;;10.25;100.00;100255.69;5030401;28;20041;-78
2023/10/31 09:19:03;;;;;;;20.67;9.02;;;;;;;10.48;100.00;100257.94;5030998;28;20040;-78
2023/10/31 09:21:29;;;;;;;22.10;7.80;;;;;;;10.79;100.00;100260.19;5031073;28;20037;-79
2023/10/31 09:23:54;;;;;;;14.90;6.10;;;;;;;11.12;100.00;100261.25;5030595;28;20065;-79
2023/10/31 09:26:20;;;;;;;18.63;5.63;;;;;;;11.36;100.00;100257.06;5029918;28;20038;-78
2023/10/31 09:28:49;;;;;;;13.20;4.20;;;;;;;11.49;100.00;100262.78;5031369;28;20045;-80
2023/10/31 09:31:18;;;;;;;16.15;4.80;;;;;;;12.05;100.00;100267.72;5031728;28;20057;-79
2023/10/31 09:33:45;;;;;;;19.27;4.53;;;;;;;12.84;100.00;100270.81;5032202;28;20156;-79
2023/10/31 09:36:11;;;;;;;12.13;3.47;;;;;;;13.65;100.00;100260.97;5036062;28;20040;-79
2023/10/31 09:38:36;;;;;;;16.25;3.35;;;;;;;14.59;100.00;100241.34;5035645;28;20037;-79
2023/10/31 09:41:03;;;;;;;14.95;3.67;;;;;;;15.44;100.00;100229.47;5036396;28;20120;-78
2023/10/31 09:43:28;;;;;;;15.40;3.35;;;;;;;16.39;100.00;100241.13;5034924;28;20092;-78
2023/10/31 09:45:54;;;;;;;12.40;2.83;;;;;;;16.96;100.00;100235.00;5035366;28;20041;-79
2023/10/31 09:48:20;;;;;;;11.88;2.72;;;;;;;17.72;100.00;100228.78;5036393;28;20033;-79
2023/10/31 09:50:49;;;;;;;13.18;3.67;;;;;;;18.00;100.00;100234.09;5035295;28;20108;-78
2023/10/31 09:53:16;;;;;;;11.32;2.80;;;;;;;18.05;100.00;100233.47;5035762;28;20033;-78
2023/10/31 09:55:42;;;;;;;9.45;2.50;;;;;;;17.92;100.00;100235.13;5035368;28;20153;-79
2023/10/31 09:58:08;;;;;;;15.30;2.58;;;;;;;17.54;100.00;100240.09;5036126;28;20030;-77
2023/10/31 10:00:33;;;;;;;10.77;2.47;;;;;;;16.82;100.00;100244.78;5035744;28;20485;-77
2023/10/31 10:02:59;;;;;;;11.50;2.55;;;;;;;16.29;100.00;100250.50;5035230;28;20053;-80
2023/10/31 10:05:26;;;;;;;10.40;2.03;;;;;;;15.86;100.00;100254.78;5034988;28;20037;-79
2023/10/31 10:07:55;;;;;;;8.73;1.90;;;;;;;15.62;100.00;100249.72;5034117;28;20053;-79
2023/10/31 10:10:20;;;;;;;7.47;2.00;;;;;;;15.28;100.00;100251.09;5035685;28;20025;-78
2023/10/31 10:12:46;;;;;;;6.15;2.10;;;;;;;14.94;100.00;100261.31;5035176;28;20104;-80
2023/10/31 10:15:14;;;;;;;15.27;2.20;;;;;;;14.54;100.00;100262.44;5035445;28;20033;-80
2023/10/31 10:17:48;;;;;;;5.65;1.77;;;;;;;14.05;100.00;100266.31;5035398;28;20029;-81
2023/10/31 10:20:14;;;;;;;9.82;2.17;;;;;;;13.62;100.00;100268.50;5035927;28;20033;-79
2023/10/31 10:22:44;;;;;;;4.93;1.80;;;;;;;13.24;100.00;100263.72;5035081;28;20053;-80
2023/10/31 10:25:11;;;;;;;9.15;2.20;;;;;;;12.99;100.00;100268.28;5035582;28;20033;-80
2023/10/31 10:27:38;;;;;;;9.00;1.90;;;;;;;12.77;100.00;100275.13;5035011;28;20044;-80
2023/10/31 10:30:08;;;;;;;11.45;2.10;;;;;;;12.60;100.00;100277.81;5033428;28;20029;-80
2023/10/31 10:32:33;;;;;;;7.78;2.40;;;;;;;12.38;100.00;100281.94;5034026;28;20030;-79
2023/10/31 10:35:00;;;;;;;8.32;2.33;;;;;;;12.28;100.00;100286.59;5033168;28;20021;-78
2023/10/31 10:37:30;;;;;;;9.07;2.38;;;;;;;12.12;100.00;100284.72;5034767;28;20034;-78
2023/10/31 10:39:56;;;;;;;16.23;3.33;;;;;;;12.07;100.00;100287.88;5034574;28;20056;-77
2023/10/31 10:42:56;;;;;;;14.93;2.97;;;;;;;12.02;100.00;100295.53;5034579;28;20124;-78
2023/10/31 10:45:23;;;;;;;15.20;3.58;;;;;;;11.91;100.00;100293.13;5020280;28;20563;-78
2023/10/31 10:47:50;;;;;;;15.05;3.33;;;;;;;11.85;100.00;100291.09;5034763;28;20452;-79
2023/10/31 10:50:19;;;;;;;13.43;3.25;;;;;;;11.76;100.00;100296.41;5033318;28;20109;-78
2023/10/31 10:52:50;;;;;;;14.05;3.55;;;;;;;11.68;100.00;100300.88;5034125;28;20022;-77
2023/10/31 10:55:25;;;;;;;28.60;6.07;;;;;;;11.64;100.00;100303.00;5034143;28;20038;-75
2023/10/31 10:58:03;;;;;;;13.00;2.85;;;;;;;11.59;100.00;100302.66;5011857;28;20088;-76
2023/10/31 11:00:29;;;;;;;15.18;3.22;;;;;;;11.58;100.00;100307.13;4992420;28;20029;-77
2023/10/31 11:02:56;;;;;;;12.27;2.80;;;;;;;11.67;100.00;100312.50;4990359;28;20038;-78
2023/10/31 11:05:23;;;;;;;13.52;2.75;;;;;;;11.75;100.00;100324.06;4991541;28;20053;-77
2023/10/31 11:07:51;;;;;;;12.95;3.13;;;;;;;11.72;100.00;100312.84;4992027;28;20038;-77
2023/10/31 11:10:17;;;;;;;15.98;3.10;;;;;;;11.88;100.00;100318.25;4991919;28;20516;-77
2023/10/31 11:12:43;;;;;;;15.55;3.22;;;;;;;12.01;100.00;100325.84;4992361;28;20035;-77
2023/10/31 11:15:11;;;;;;;17.60;3.08;;;;;;;12.04;100.00;100330.03;4991166;28;20038;-75